Time;durP1;ratioP1;P1;durP2;ratioP2;P2;SDS_P1;SDS_P2;PMS_P1;PMS_P2;Temp;Humidity;BMP_temperature;BMP_pressure;BME280_temperature;BME280_humidity;BME280_pressure;Samples;Min_cycle;Max_cycle;Signal;HPM_P1;HPM_P2
2021/04/27 00:00:43;;;;;;;10.60;5.82;;;;;;;;;;4281180;33;20333;-66
2021/04/27 00:03:08;;;;;;;22.25;5.55;;;;;;;;;;4279941;33;20234;-68
2021/04/27 00:05:34;;;;;;;8.75;5.12;;;;;;;;;;4276338;33;20228;-63
2021/04/27 00:08:00;;;;;;;11.60;5.37;;;;;;;;;;4267414;33;20423;-67
2021/04/27 00:10:26;;;;;;;22.98;11.18;;;;;;;;;;4272315;33;20318;-66
2021/04/27 00:12:53;;;;;;;24.23;21.37;;;;;;;;;;4281719;33;20724;-67
2021/04/27 00:15:22;;;;;;;28.33;22.92;;;;;;;;;;4279380;33;20283;-63
2021/04/27 00:17:48;;;;;;;16.90;11.90;;;;;;;;;;4272661;33;20297;-63
2021/04/27 00:20:14;;;;;;;14.60;10.13;;;;;;;;;;4262600;33;20268;-63
2021/04/27 00:22:40;;;;;;;9.35;7.70;;;;;;;;;;4277643;33;20236;-63
2021/04/27 00:25:07;;;;;;;13.43;8.18;;;;;;;;;;4291091;33;20287;-62
2021/04/27 00:27:32;;;;;;;16.12;9.38;;;;;;;;;;4277142;33;20298;-61
2021/04/27 00:29:58;;;;;;;17.48;8.88;;;;;;;;;;4280417;33;20255;-62
2021/04/27 00:32:24;;;;;;;14.00;8.38;;;;;;;;;;4277010;33;20287;-61
2021/04/27 00:34:50;;;;;;;12.65;8.05;;;;;;;;;;4281810;33;20283;-63
2021/04/27 00:37:16;;;;;;;13.25;8.93;;;;;;;;;;4275468;33;20286;-64
2021/04/27 00:39:42;;;;;;;13.50;8.57;;;;;;;;;;4281283;33;20370;-64
2021/04/27 00:42:07;;;;;;;18.37;11.98;;;;;;;;;;4275336;33;20250;-62
2021/04/27 00:44:33;;;;;;;25.42;18.20;;;;;;;;;;4280136;33;20358;-63
2021/04/27 00:46:58;;;;;;;16.15;12.07;;;;;;;;;;4272209;33;20271;-62
2021/04/27 00:49:23;;;;;;;13.50;9.32;;;;;;;;;;4278705;33;20306;-64
2021/04/27 00:51:49;;;;;;;14.95;7.85;;;;;;;;;;4277103;33;20299;-64
2021/04/27 00:54:15;;;;;;;14.63;7.90;;;;;;;;;;4280831;33;20306;-61
2021/04/27 00:56:40;;;;;;;13.02;7.93;;;;;;;;;;4273556;33;20702;-61
2021/04/27 00:59:06;;;;;;;10.75;6.97;;;;;;;;;;4271974;33;20657;-62
2021/04/27 01:01:32;;;;;;;12.32;7.10;;;;;;;;;;4279232;33;20325;-61
2021/04/27 01:03:58;;;;;;;15.60;7.57;;;;;;;;;;4269620;33;20294;-60
2021/04/27 01:06:23;;;;;;;10.75;6.90;;;;;;;;;;4280028;33;20385;-61
2021/04/27 01:08:54;;;;;;;15.48;7.65;;;;;;;;;;4269974;33;20204;-62
2021/04/27 01:11:51;;;;;;;13.95;6.93;;;;;;;;;;4273786;33;20250;-61
2021/04/27 01:14:28;;;;;;;11.30;7.45;;;;;;;;;;4278645;33;20242;-61
2021/04/27 01:16:59;;;;;;;15.38;6.87;;;;;;;;;;4286061;33;20327;-62
2021/04/27 01:19:37;;;;;;;20.52;6.68;;;;;;;;;;4281883;33;20283;-62
2021/04/27 01:22:06;;;;;;;9.68;4.80;;;;;;;;;;4275351;33;20382;-63
2021/04/27 01:24:42;;;;;;;16.02;6.03;;;;;;;;;;4279050;33;20635;-62
2021/04/27 01:27:08;;;;;;;23.55;9.65;;;;;;;;;;4288952;33;20295;-62
2021/04/27 01:29:34;;;;;;;22.23;9.02;;;;;;;;;;4276145;33;20363;-62
2021/04/27 01:32:03;;;;;;;17.30;9.85;;;;;;;;;;4278764;33;20585;-64
2021/04/27 01:34:33;;;;;;;17.17;7.85;;;;;;;;;;4284049;33;20617;-65
2021/04/27 01:36:59;;;;;;;14.38;7.82;;;;;;;;;;4275040;33;20634;-64
2021/04/27 01:39:27;;;;;;;12.77;7.75;;;;;;;;;;4281431;33;20674;-66
2021/04/27 01:41:54;;;;;;;10.15;6.35;;;;;;;;;;4279729;33;20386;-66
2021/04/27 01:44:20;;;;;;;11.27;6.85;;;;;;;;;;4285729;33;20219;-66
2021/04/27 01:46:46;;;;;;;12.45;6.75;;;;;;;;;;4284017;33;20633;-66
2021/04/27 01:49:14;;;;;;;15.60;5.95;;;;;;;;;;4277758;33;20564;-64
2021/04/27 01:51:40;;;;;;;12.95;7.10;;;;;;;;;;4277344;33;20251;-63
2021/04/27 01:54:06;;;;;;;11.88;6.22;;;;;;;;;;4284859;33;20724;-63
2021/04/27 01:56:32;;;;;;;12.30;6.82;;;;;;;;;;4273400;33;20382;-63
2021/04/27 01:58:57;;;;;;;17.45;11.02;;;;;;;;;;4273461;33;20271;-63
2021/04/27 02:01:25;;;;;;;22.67;18.87;;;;;;;;;;4276463;33;20258;-66
2021/04/27 02:03:50;;;;;;;17.35;12.70;;;;;;;;;;4283961;33;20242;-66
2021/04/27 02:06:16;;;;;;;15.05;10.93;;;;;;;;;;4276655;33;20197;-65
2021/04/27 02:08:48;;;;;;;15.77;10.57;;;;;;;;;;4271786;33;20358;-65
2021/04/27 02:11:14;;;;;;;12.25;8.00;;;;;;;;;;4276989;33;20523;-60
2021/04/27 02:13:40;;;;;;;10.65;6.32;;;;;;;;;;4282095;33;20307;-61
2021/04/27 02:16:06;;;;;;;9.38;5.70;;;;;;;;;;4264071;33;20300;-63
2021/04/27 02:19:04;;;;;;;13.57;5.93;;;;;;;;;;4280934;33;20313;-63
2021/04/27 02:21:33;;;;;;;8.38;5.35;;;;;;;;;;4259503;33;20797;-66
2021/04/27 02:23:59;;;;;;;6.80;4.78;;;;;;;;;;4281690;33;20251;-65
2021/04/27 02:26:25;;;;;;;8.10;5.10;;;;;;;;;;4267833;33;20354;-64
2021/04/27 02:28:52;;;;;;;9.38;5.25;;;;;;;;;;4277054;33;20303;-66
2021/04/27 02:31:18;;;;;;;9.50;5.45;;;;;;;;;;4276405;33;20224;-65
2021/04/27 02:33:44;;;;;;;11.02;5.50;;;;;;;;;;4282550;33;20280;-66
2021/04/27 02:36:09;;;;;;;6.68;4.87;;;;;;;;;;4278185;33;20200;-65
2021/04/27 02:38:35;;;;;;;7.97;5.45;;;;;;;;;;4271984;33;20275;-65
2021/04/27 02:41:01;;;;;;;8.32;5.47;;;;;;;;;;4274550;33;20303;-67
2021/04/27 02:43:27;;;;;;;8.02;5.45;;;;;;;;;;4283032;33;20365;-65
2021/04/27 02:45:53;;;;;;;13.30;6.60;;;;;;;;;;4274445;33;20582;-65
2021/04/27 02:48:24;;;;;;;73.15;40.28;;;;;;;;;;4275621;33;20254;-65
2021/04/27 02:50:53;;;;;;;57.03;38.97;;;;;;;;;;4275383;33;20304;-62
2021/04/27 02:53:19;;;;;;;26.55;19.48;;;;;;;;;;4281086;33;20208;-63
2021/04/27 02:55:45;;;;;;;12.35;10.38;;;;;;;;;;4277569;33;20216;-63
2021/04/27 02:58:12;;;;;;;15.55;9.25;;;;;;;;;;4267544;33;20338;-66
2021/04/27 03:00:39;;;;;;;11.02;8.48;;;;;;;;;;4274338;33;20256;-67
2021/04/27 03:03:05;;;;;;;9.40;8.05;;;;;;;;;;4280443;33;20601;-66
2021/04/27 03:05:31;;;;;;;25.70;8.68;;;;;;;;;;4289998;33;20347;-67
2021/04/27 03:07:56;;;;;;;17.67;9.98;;;;;;;;;;4269545;33;20566;-65
2021/04/27 03:10:22;;;;;;;13.98;8.85;;;;;;;;;;4274130;33;20307;-66
2021/04/27 03:12:47;;;;;;;15.02;8.77;;;;;;;;;;4281083;33;20283;-64
2021/04/27 03:15:14;;;;;;;13.10;8.82;;;;;;;;;;4280868;33;20334;-65
2021/04/27 03:17:39;;;;;;;8.00;7.10;;;;;;;;;;4270718;33;20228;-63
2021/04/27 03:20:08;;;;;;;11.05;7.93;;;;;;;;;;4274318;33;20391;-64
2021/04/27 03:22:34;;;;;;;10.02;7.68;;;;;;;;;;4279502;33;20606;-66
2021/04/27 03:24:59;;;;;;;16.83;9.45;;;;;;;;;;4275545;33;20268;-62
2021/04/27 03:27:25;;;;;;;16.52;9.90;;;;;;;;;;4272586;33;20592;-65
2021/04/27 03:29:51;;;;;;;28.40;17.02;;;;;;;;;;4260664;33;20295;-66
2021/04/27 03:32:17;;;;;;;19.70;13.48;;;;;;;;;;4275909;33;20216;-66
2021/04/27 03:34:43;;;;;;;20.55;12.43;;;;;;;;;;4282424;33;20207;-66
2021/04/27 03:37:09;;;;;;;16.75;12.20;;;;;;;;;;4272369;33;20244;-62
2021/04/27 03:39:35;;;;;;;17.10;10.70;;;;;;;;;;4272814;33;20705;-64
2021/04/27 03:42:01;;;;;;;18.95;9.75;;;;;;;;;;4287755;33;20212;-64
2021/04/27 03:44:26;;;;;;;16.08;9.05;;;;;;;;;;4278797;33;20622;-63
2021/04/27 03:46:52;;;;;;;10.85;7.93;;;;;;;;;;4265584;33;20686;-65
2021/04/27 03:49:17;;;;;;;12.37;7.53;;;;;;;;;;4275350;33;20343;-64
2021/04/27 03:51:43;;;;;;;12.10;8.45;;;;;;;;;;4290035;33;20762;-57
2021/04/27 03:54:08;;;;;;;16.17;8.00;;;;;;;;;;4281880;33;20272;-57
2021/04/27 03:56:34;;;;;;;10.00;7.43;;;;;;;;;;4271942;33;20381;-55
2021/04/27 03:58:59;;;;;;;11.80;7.18;;;;;;;;;;4271727;33;20272;-55
2021/04/27 04:01:25;;;;;;;14.87;8.25;;;;;;;;;;4272234;33;20310;-56
2021/04/27 04:03:51;;;;;;;14.10;7.45;;;;;;;;;;4282252;33;20276;-56
2021/04/27 04:06:16;;;;;;;11.68;8.40;;;;;;;;;;4274957;33;20264;-56
2021/04/27 04:08:42;;;;;;;17.12;9.95;;;;;;;;;;4269763;33;20367;-56
2021/04/27 04:11:07;;;;;;;14.05;11.07;;;;;;;;;;4273828;33;20323;-56
2021/04/27 04:13:33;;;;;;;13.32;10.07;;;;;;;;;;4280948;33;20259;-55
2021/04/27 04:15:59;;;;;;;15.18;11.48;;;;;;;;;;4274957;33;20224;-55
2021/04/27 04:18:24;;;;;;;19.10;11.85;;;;;;;;;;4274327;33;20286;-57
2021/04/27 04:20:50;;;;;;;18.10;12.80;;;;;;;;;;4291153;33;20329;-56
2021/04/27 04:23:16;;;;;;;17.52;11.75;;;;;;;;;;4279567;33;20263;-56
2021/04/27 04:25:42;;;;;;;18.77;11.25;;;;;;;;;;4276524;33;20240;-55
2021/04/27 04:28:09;;;;;;;16.87;10.60;;;;;;;;;;4273352;33;20341;-55
2021/04/27 04:30:36;;;;;;;11.73;8.88;;;;;;;;;;4266858;33;20558;-57
2021/04/27 04:33:01;;;;;;;13.82;9.70;;;;;;;;;;4278080;33;20307;-58
2021/04/27 04:35:29;;;;;;;18.58;9.38;;;;;;;;;;4284333;33;20412;-57
2021/04/27 04:37:56;;;;;;;14.32;10.40;;;;;;;;;;4267536;33;20279;-58
2021/04/27 04:40:22;;;;;;;18.60;11.32;;;;;;;;;;4272262;33;20283;-57
2021/04/27 04:42:47;;;;;;;23.77;11.27;;;;;;;;;;4273823;33;20266;-58
2021/04/27 04:45:14;;;;;;;19.60;10.90;;;;;;;;;;4272962;33;20295;-58
2021/04/27 04:47:41;;;;;;;14.82;9.52;;;;;;;;;;4274430;33;20590;-57
2021/04/27 04:50:08;;;;;;;12.73;10.30;;;;;;;;;;4276431;33;20701;-58
2021/04/27 04:52:34;;;;;;;17.77;10.55;;;;;;;;;;4275202;33;20229;-57
2021/04/27 04:54:59;;;;;;;16.23;9.95;;;;;;;;;;4280247;33;20263;-56
2021/04/27 04:57:25;;;;;;;14.25;10.00;;;;;;;;;;4268269;33;20220;-58
2021/04/27 04:59:51;;;;;;;16.90;9.98;;;;;;;;;;4273949;33;20622;-56
2021/04/27 05:02:16;;;;;;;16.65;9.50;;;;;;;;;;4276328;33;20551;-57
2021/04/27 05:04:42;;;;;;;14.15;8.98;;;;;;;;;;4281425;33;20307;-58
2021/04/27 05:07:10;;;;;;;17.83;11.37;;;;;;;;;;4277374;33;20228;-58
2021/04/27 05:09:36;;;;;;;14.73;9.52;;;;;;;;;;4275460;33;20318;-59
2021/04/27 05:12:03;;;;;;;20.92;12.93;;;;;;;;;;4273194;33;20303;-58
2021/04/27 05:14:33;;;;;;;26.08;13.23;;;;;;;;;;4276679;33;20363;-58
2021/04/27 05:16:59;;;;;;;20.88;14.30;;;;;;;;;;4274987;33;20223;-58
2021/04/27 05:19:25;;;;;;;18.58;13.95;;;;;;;;;;4276761;33;20328;-58
2021/04/27 05:21:50;;;;;;;21.50;12.95;;;;;;;;;;4276222;33;20699;-58
2021/04/27 05:24:16;;;;;;;22.02;13.40;;;;;;;;;;4276688;33;20307;-61
2021/04/27 05:26:41;;;;;;;20.55;13.62;;;;;;;;;;4276409;33;20354;-58
2021/04/27 05:29:08;;;;;;;23.58;16.90;;;;;;;;;;4263095;33;20279;-59
2021/04/27 05:31:34;;;;;;;26.75;19.55;;;;;;;;;;4263221;33;20720;-58
2021/04/27 05:33:59;;;;;;;17.87;12.52;;;;;;;;;;4280787;33;20592;-58
2021/04/27 05:36:25;;;;;;;13.88;8.38;;;;;;;;;;4275887;33;20850;-59
2021/04/27 05:38:50;;;;;;;16.45;7.60;;;;;;;;;;4269268;33;20318;-59
2021/04/27 05:41:16;;;;;;;18.05;6.90;;;;;;;;;;4275218;33;20261;-58
2021/04/27 05:43:41;;;;;;;13.35;6.50;;;;;;;;;;4274801;33;20418;-58
2021/04/27 05:46:07;;;;;;;10.05;7.47;;;;;;;;;;4277813;33;20216;-58
2021/04/27 05:48:33;;;;;;;15.65;7.35;;;;;;;;;;4271714;33;20720;-58
2021/04/27 05:50:58;;;;;;;11.27;7.43;;;;;;;;;;4270823;33;20251;-57
2021/04/27 05:53:24;;;;;;;15.07;9.40;;;;;;;;;;4260977;33;20410;-57
2021/04/27 05:55:50;;;;;;;12.85;9.02;;;;;;;;;;4275879;33;20250;-62
2021/04/27 05:58:15;;;;;;;15.70;10.10;;;;;;;;;;4260441;33;20310;-64
2021/04/27 06:00:41;;;;;;;17.40;9.07;;;;;;;;;;4282327;33;20240;-58
2021/04/27 06:03:07;;;;;;;20.45;11.48;;;;;;;;;;4274341;33;20421;-56
2021/04/27 06:05:32;;;;;;;21.50;11.70;;;;;;;;;;4275050;33;20712;-57
2021/04/27 06:07:58;;;;;;;15.57;11.32;;;;;;;;;;4267012;33;20918;-62
2021/04/27 06:10:24;;;;;;;21.10;12.02;;;;;;;;;;4276853;33;20727;-61
2021/04/27 06:12:49;;;;;;;18.67;12.32;;;;;;;;;;4274225;33;20219;-57
2021/04/27 06:15:17;;;;;;;18.60;12.57;;;;;;;;;;4275129;33;20279;-56
2021/04/27 06:17:44;;;;;;;22.55;12.15;;;;;;;;;;4271003;33;20391;-59
2021/04/27 06:20:10;;;;;;;18.10;12.10;;;;;;;;;;4273359;33;20254;-62
2021/04/27 06:22:36;;;;;;;14.07;11.30;;;;;;;;;;4269199;33;20415;-66
2021/04/27 06:25:04;;;;;;;20.65;11.90;;;;;;;;;;4279929;33;20811;-61
2021/04/27 06:27:30;;;;;;;14.95;11.12;;;;;;;;;;4262603;33;20270;-63
2021/04/27 06:29:58;;;;;;;17.15;11.70;;;;;;;;;;4278443;33;20315;-57
2021/04/27 06:32:23;;;;;;;18.87;11.40;;;;;;;;;;4262586;33;20284;-57
2021/04/27 06:34:49;;;;;;;21.83;12.32;;;;;;;;;;4278854;33;20311;-57
2021/04/27 06:37:14;;;;;;;18.62;10.98;;;;;;;;;;4268145;33;20239;-58
2021/04/27 06:39:40;;;;;;;21.90;14.82;;;;;;;;;;4271784;33;20287;-59
2021/04/27 06:42:06;;;;;;;17.27;12.07;;;;;;;;;;4263712;33;20275;-57
2021/04/27 06:44:32;;;;;;;20.15;12.68;;;;;;;;;;4266856;33;20295;-58
2021/04/27 06:46:58;;;;;;;11.65;8.27;;;;;;;;;;4263859;33;20240;-57
2021/04/27 06:49:24;;;;;;;12.18;7.28;;;;;;;;;;4277874;33;20297;-58
2021/04/27 06:51:50;;;;;;;16.10;7.87;;;;;;;;;;4275697;33;20271;-56
2021/04/27 06:54:15;;;;;;;10.18;8.73;;;;;;;;;;4274244;33;20326;-56
2021/04/27 06:56:41;;;;;;;10.52;6.72;;;;;;;;;;4262913;33;20243;-56
2021/04/27 06:59:10;;;;;;;12.07;8.38;;;;;;;;;;4280333;33;20287;-57
2021/04/27 07:01:35;;;;;;;17.17;8.85;;;;;;;;;;4271422;33;20516;-56
2021/04/27 07:04:01;;;;;;;10.52;6.97;;;;;;;;;;4277538;33;20345;-57
2021/04/27 07:06:26;;;;;;;10.45;6.57;;;;;;;;;;4262716;33;20379;-57
2021/04/27 07:08:52;;;;;;;7.32;6.30;;;;;;;;;;4279834;33;20314;-57
2021/04/27 07:11:17;;;;;;;15.13;6.07;;;;;;;;;;4274906;33;20240;-56
2021/04/27 07:13:43;;;;;;;7.40;5.78;;;;;;;;;;4274341;33;20263;-56
2021/04/27 07:16:09;;;;;;;11.65;7.37;;;;;;;;;;4266622;33;20224;-57
2021/04/27 07:18:34;;;;;;;12.45;6.97;;;;;;;;;;4272102;33;20894;-57
2021/04/27 07:21:00;;;;;;;10.98;6.10;;;;;;;;;;4265391;33;20275;-60
2021/04/27 07:23:26;;;;;;;8.82;5.62;;;;;;;;;;4285541;33;20398;-59
2021/04/27 07:25:52;;;;;;;15.35;5.85;;;;;;;;;;4267394;33;20291;-60
2021/04/27 07:28:18;;;;;;;7.37;5.00;;;;;;;;;;4268997;33;20303;-58
2021/04/27 07:30:44;;;;;;;6.65;5.05;;;;;;;;;;4261080;33;20264;-59
2021/04/27 07:33:11;;;;;;;7.93;4.53;;;;;;;;;;4284224;33;20298;-59
2021/04/27 07:35:37;;;;;;;11.85;5.25;;;;;;;;;;4264096;33;20217;-59
2021/04/27 07:38:03;;;;;;;11.18;5.05;;;;;;;;;;4283412;33;20406;-60
2021/04/27 07:40:31;;;;;;;12.18;5.90;;;;;;;;;;4260741;33;20205;-59
2021/04/27 07:42:57;;;;;;;8.57;5.80;;;;;;;;;;4284421;33;20208;-59
2021/04/27 07:45:23;;;;;;;11.65;6.07;;;;;;;;;;4272709;33;20379;-59
2021/04/27 07:47:51;;;;;;;13.55;6.53;;;;;;;;;;4266461;33;20342;-60
2021/04/27 07:50:17;;;;;;;18.90;7.97;;;;;;;;;;4270514;33;20320;-60
2021/04/27 07:52:43;;;;;;;10.25;5.72;;;;;;;;;;4261809;33;20619;-58
2021/04/27 07:55:10;;;;;;;9.40;5.20;;;;;;;;;;4275642;33;20310;-58
2021/04/27 07:57:36;;;;;;;10.90;6.32;;;;;;;;;;4269377;33;20311;-58
2021/04/27 08:00:03;;;;;;;11.38;5.80;;;;;;;;;;4261485;33;20749;-59
2021/04/27 08:02:29;;;;;;;14.30;6.43;;;;;;;;;;4256291;33;20668;-59
2021/04/27 08:04:54;;;;;;;13.65;8.75;;;;;;;;;;4266470;33;20314;-59
2021/04/27 08:07:20;;;;;;;12.00;6.60;;;;;;;;;;4269089;33;20225;-60
2021/04/27 08:09:46;;;;;;;17.23;7.35;;;;;;;;;;4264123;33;20299;-59
2021/04/27 08:12:11;;;;;;;16.73;7.22;;;;;;;;;;4277534;33;20254;-59
2021/04/27 08:14:37;;;;;;;8.82;6.30;;;;;;;;;;4267895;33;20693;-59
2021/04/27 08:17:02;;;;;;;11.43;6.72;;;;;;;;;;4268136;33;20385;-60
2021/04/27 08:19:28;;;;;;;16.85;6.07;;;;;;;;;;4269923;33;20272;-59
2021/04/27 08:21:54;;;;;;;10.95;5.75;;;;;;;;;;4279189;33;20715;-60
2021/04/27 08:24:20;;;;;;;9.73;6.03;;;;;;;;;;4271487;33;20300;-59
2021/04/27 08:26:46;;;;;;;13.60;6.50;;;;;;;;;;4279490;33;20209;-61
2021/04/27 08:29:11;;;;;;;12.00;6.53;;;;;;;;;;4266381;33;20354;-58
2021/04/27 08:31:37;;;;;;;10.95;6.22;;;;;;;;;;4280182;33;20252;-59
2021/04/27 08:34:03;;;;;;;14.98;5.80;;;;;;;;;;4256210;33;20637;-61
2021/04/27 08:36:28;;;;;;;17.45;5.57;;;;;;;;;;4279658;33;20647;-58
2021/04/27 08:38:54;;;;;;;16.92;5.47;;;;;;;;;;4262036;33;20291;-58
2021/04/27 08:41:23;;;;;;;9.57;5.07;;;;;;;;;;4268322;33;20236;-57
2021/04/27 08:43:49;;;;;;;8.45;5.78;;;;;;;;;;4284232;33;20695;-58
2021/04/27 08:46:15;;;;;;;9.20;5.50;;;;;;;;;;4262349;33;20681;-58
2021/04/27 08:48:42;;;;;;;8.52;5.85;;;;;;;;;;4277312;33;20272;-57
2021/04/27 08:51:11;;;;;;;10.32;5.70;;;;;;;;;;4273150;33;20590;-57
2021/04/27 08:53:36;;;;;;;18.30;5.68;;;;;;;;;;4271752;33;20230;-58
2021/04/27 08:56:02;;;;;;;17.42;5.78;;;;;;;;;;4264626;33;20383;-58
2021/04/27 08:58:28;;;;;;;16.10;7.12;;;;;;;;;;4272906;33;20770;-60
2021/04/27 09:00:54;;;;;;;7.07;5.55;;;;;;;;;;4274162;33;20235;-58
2021/04/27 09:03:20;;;;;;;10.98;6.30;;;;;;;;;;4284348;33;20316;-58
2021/04/27 09:05:46;;;;;;;8.70;5.15;;;;;;;;;;4267579;33;20213;-58
2021/04/27 09:08:12;;;;;;;9.15;5.72;;;;;;;;;;4277769;33;20232;-58
2021/04/27 09:10:43;;;;;;;9.57;5.55;;;;;;;;;;4282763;33;20294;-57
2021/04/27 09:13:17;;;;;;;13.73;6.28;;;;;;;;;;4284216;33;20634;-57
2021/04/27 09:15:53;;;;;;;9.95;6.12;;;;;;;;;;4273820;33;20811;-56
2021/04/27 09:18:29;;;;;;;13.55;7.12;;;;;;;;;;4268089;33;20243;-56
2021/04/27 09:21:00;;;;;;;10.63;5.18;;;;;;;;;;4258812;33;20284;-57
2021/04/27 09:23:26;;;;;;;7.87;4.78;;;;;;;;;;4264327;33;20618;-60
2021/04/27 09:26:27;;;;;;;11.25;5.87;;;;;;;;;;4278256;33;20224;-60
2021/04/27 09:28:54;;;;;;;10.98;5.72;;;;;;;;;;4257373;33;20859;-60
2021/04/27 09:31:24;;;;;;;11.98;5.50;;;;;;;;;;4274894;33;20229;-59
2021/04/27 09:33:50;;;;;;;7.97;4.70;;;;;;;;;;4265400;33;20299;-60
2021/04/27 09:36:20;;;;;;;10.02;5.40;;;;;;;;;;4268696;33;20225;-60
2021/04/27 09:38:46;;;;;;;7.43;5.30;;;;;;;;;;4262099;33;20229;-61
2021/04/27 09:41:12;;;;;;;12.57;5.00;;;;;;;;;;4277182;33;20644;-59
2021/04/27 09:43:45;;;;;;;6.10;4.70;;;;;;;;;;4266222;33;20808;-60
2021/04/27 09:46:16;;;;;;;11.05;5.50;;;;;;;;;;4280855;33;20250;-61
2021/04/27 09:48:51;;;;;;;7.68;5.57;;;;;;;;;;4269488;33;20347;-60
2021/04/27 09:51:22;;;;;;;12.02;5.53;;;;;;;;;;4268230;33;20296;-60
2021/04/27 09:53:55;;;;;;;14.73;7.12;;;;;;;;;;4277062;33;20691;-60
2021/04/27 09:56:34;;;;;;;15.20;8.32;;;;;;;;;;4280102;33;20363;-59
2021/04/27 09:59:08;;;;;;;10.98;6.50;;;;;;;;;;4275237;33;20227;-60
2021/04/27 10:01:34;;;;;;;14.45;7.00;;;;;;;;;;4279464;33;20290;-60
2021/04/27 10:04:01;;;;;;;10.55;5.03;;;;;;;;;;4271175;33;20295;-60
2021/04/27 10:06:27;;;;;;;9.25;4.53;;;;;;;;;;4272889;33;20258;-59
2021/04/27 10:08:54;;;;;;;9.38;4.97;;;;;;;;;;4278323;33;20371;-60
2021/04/27 10:11:22;;;;;;;9.00;4.90;;;;;;;;;;4269546;33;20290;-61
2021/04/27 10:13:48;;;;;;;8.60;5.80;;;;;;;;;;4266740;33;20212;-60
2021/04/27 10:16:14;;;;;;;10.82;5.43;;;;;;;;;;4280086;33;20254;-60
2021/04/27 10:18:41;;;;;;;11.57;4.55;;;;;;;;;;4267293;33;20314;-59
2021/04/27 10:21:15;;;;;;;10.65;4.78;;;;;;;;;;4266446;33;20668;-59
2021/04/27 10:23:46;;;;;;;14.70;7.50;;;;;;;;;;4268313;33;20274;-60
2021/04/27 10:26:12;;;;;;;16.80;6.65;;;;;;;;;;4280902;33;20291;-60
2021/04/27 10:28:59;;;;;;;11.02;4.95;;;;;;;;;;4261543;33;20291;-62
2021/04/27 10:31:26;;;;;;;10.68;5.50;;;;;;;;;;4277704;33;20224;-61
2021/04/27 10:34:04;;;;;;;16.00;3.62;;;;;;;;;;4267517;33;20304;-61
2021/04/27 10:36:30;;;;;;;8.52;4.12;;;;;;;;;;4281811;33;20242;-61
2021/04/27 10:39:06;;;;;;;7.62;3.78;;;;;;;;;;4267184;33;20293;-60
2021/04/27 10:41:53;;;;;;;6.22;3.62;;;;;;;;;;4280130;33;20382;-61
2021/04/27 10:44:20;;;;;;;4.85;3.37;;;;;;;;;;4263385;33;20691;-61
2021/04/27 10:46:56;;;;;;;6.50;3.60;;;;;;;;;;4283238;33;20240;-60
2021/04/27 10:49:27;;;;;;;15.25;3.50;;;;;;;;;;4280361;33;20347;-57
2021/04/27 10:51:55;;;;;;;5.65;3.75;;;;;;;;;;4274759;33;20307;-57
2021/04/27 10:54:24;;;;;;;11.43;3.60;;;;;;;;;;4284655;33;20251;-58
2021/04/27 10:56:53;;;;;;;6.25;3.12;;;;;;;;;;4278670;33;20296;-57
2021/04/27 10:59:24;;;;;;;9.15;3.20;;;;;;;;;;4270716;33;20230;-57
2021/04/27 11:02:10;;;;;;;11.23;4.00;;;;;;;;;;4264857;33;20235;-60
2021/04/27 11:04:45;;;;;;;10.13;2.80;;;;;;;;;;4277461;33;20267;-59
2021/04/27 11:07:20;;;;;;;3.60;3.03;;;;;;;;;;4270883;33;20262;-60
2021/04/27 11:10:01;;;;;;;7.43;3.28;;;;;;;;;;4268614;33;20380;-60
2021/04/27 11:12:46;;;;;;;6.28;3.45;;;;;;;;;;4281213;33;20270;-60
2021/04/27 11:15:22;;;;;;;4.95;3.37;;;;;;;;;;4269511;33;20219;-59
2021/04/27 11:18:26;;;;;;;4.37;2.90;;;;;;;;;;4279696;33;20219;-59
2021/04/27 11:21:12;;;;;;;11.40;3.95;;;;;;;;;;4271515;33;20224;-58
2021/04/27 11:23:40;;;;;;;6.97;4.55;;;;;;;;;;4276896;33;20235;-59
2021/04/27 11:26:32;;;;;;;11.77;4.30;;;;;;;;;;4276641;33;20256;-60
2021/04/27 11:28:57;;;;;;;9.50;4.20;;;;;;;;;;4263945;33;20311;-59
2021/04/27 11:31:23;;;;;;;6.00;2.53;;;;;;;;;;4279712;33;20626;-60
2021/04/27 11:33:59;;;;;;;6.87;3.55;;;;;;;;;;4267230;33;20649;-59
2021/04/27 11:36:39;;;;;;;7.25;3.35;;;;;;;;;;4281158;33;20314;-59
2021/04/27 11:39:15;;;;;;;4.32;3.62;;;;;;;;;;4270482;33;20236;-56
2021/04/27 11:41:48;;;;;;;8.65;4.65;;;;;;;;;;4274923;33;20330;-56
2021/04/27 11:44:16;;;;;;;7.05;3.87;;;;;;;;;;4262034;33;20539;-57
2021/04/27 11:47:01;;;;;;;8.07;3.65;;;;;;;;;;4280352;33;20239;-57
2021/04/27 11:49:51;;;;;;;10.60;4.20;;;;;;;;;;4270805;33;20520;-57
2021/04/27 11:52:36;;;;;;;7.40;3.72;;;;;;;;;;4262518;33;20216;-58
2021/04/27 11:55:03;;;;;;;4.45;3.15;;;;;;;;;;4285524;33;20366;-61
2021/04/27 11:57:29;;;;;;;5.12;2.37;;;;;;;;;;4270821;33;20757;-56
2021/04/27 11:59:59;;;;;;;5.10;3.20;;;;;;;;;;4273198;33;20370;-57
2021/04/27 12:02:32;;;;;;;4.78;2.83;;;;;;;;;;4280886;33;20610;-57
2021/04/27 12:04:59;;;;;;;13.20;2.92;;;;;;;;;;4265827;33;20687;-57
2021/04/27 12:07:27;;;;;;;6.60;3.20;;;;;;;;;;4276643;33;20295;-57
2021/04/27 12:09:55;;;;;;;6.90;3.85;;;;;;;;;;4277060;33;20288;-57
2021/04/27 12:12:21;;;;;;;9.60;2.87;;;;;;;;;;4283209;33;20251;-56
2021/04/27 12:14:50;;;;;;;10.10;3.03;;;;;;;;;;4271173;33;20294;-56
2021/04/27 12:17:36;;;;;;;5.65;3.97;;;;;;;;;;4277579;33;20729;-56
2021/04/27 12:20:08;;;;;;;12.32;4.60;;;;;;;;;;4276776;33;20571;-56
2021/04/27 12:22:42;;;;;;;12.25;4.20;;;;;;;;;;4268778;33;20459;-56
2021/04/27 12:25:25;;;;;;;4.55;3.62;;;;;;;;;;4283607;33;20287;-57
2021/04/27 12:28:03;;;;;;;9.98;3.65;;;;;;;;;;4275903;33;20204;-57
2021/04/27 12:30:31;;;;;;;7.90;3.35;;;;;;;;;;4278545;33;20340;-56
2021/04/27 12:33:11;;;;;;;12.18;4.87;;;;;;;;;;4277603;33;20682;-57
2021/04/27 12:35:39;;;;;;;11.25;3.55;;;;;;;;;;4277440;33;20215;-57
2021/04/27 12:38:16;;;;;;;5.87;3.42;;;;;;;;;;4274330;33;20614;-57
2021/04/27 12:40:51;;;;;;;7.43;3.53;;;;;;;;;;4273730;33;20369;-59
2021/04/27 12:43:25;;;;;;;5.00;3.67;;;;;;;;;;4279277;33;20211;-58
2021/04/27 12:45:56;;;;;;;5.60;3.37;;;;;;;;;;4290825;33;20258;-59
2021/04/27 12:48:22;;;;;;;7.78;3.60;;;;;;;;;;4273491;33;20230;-59
2021/04/27 12:50:53;;;;;;;7.93;3.87;;;;;;;;;;4280658;33;20238;-59
2021/04/27 12:53:20;;;;;;;9.13;3.37;;;;;;;;;;4277511;33;20208;-59
2021/04/27 12:55:52;;;;;;;10.45;4.07;;;;;;;;;;4281651;33;20212;-59
2021/04/27 12:58:23;;;;;;;6.10;3.90;;;;;;;;;;4275060;33;20213;-59
2021/04/27 13:00:58;;;;;;;6.62;3.62;;;;;;;;;;4279034;33;20238;-59
2021/04/27 13:03:26;;;;;;;7.72;3.87;;;;;;;;;;4243651;33;20252;-58
2021/04/27 13:05:53;;;;;;;6.53;3.25;;;;;;;;;;4275488;33;20235;-59
2021/04/27 13:08:25;;;;;;;11.32;3.67;;;;;;;;;;4269905;33;20610;-59
2021/04/27 13:10:52;;;;;;;5.97;3.22;;;;;;;;;;4289545;33;20303;-58
2021/04/27 13:13:23;;;;;;;14.20;4.95;;;;;;;;;;4279815;33;20628;-59
2021/04/27 13:16:06;;;;;;;7.95;4.18;;;;;;;;;;4274888;33;20618;-59
2021/04/27 13:18:32;;;;;;;8.50;4.78;;;;;;;;;;4275475;33;20637;-60
2021/04/27 13:21:02;;;;;;;10.07;4.60;;;;;;;;;;4271665;33;20700;-59
2021/04/27 13:23:30;;;;;;;7.32;4.55;;;;;;;;;;4271688;33;20208;-59
2021/04/27 13:26:02;;;;;;;7.50;4.12;;;;;;;;;;4267946;33;20251;-60
2021/04/27 13:28:31;;;;;;;6.75;3.87;;;;;;;;;;4272295;33;20239;-59
2021/04/27 13:30:56;;;;;;;6.00;3.87;;;;;;;;;;4274338;33;20248;-59
2021/04/27 13:33:28;;;;;;;12.25;5.65;;;;;;;;;;4278132;33;20835;-60
2021/04/27 13:35:55;;;;;;;24.52;13.82;;;;;;;;;;4278695;33;20237;-59
2021/04/27 13:38:31;;;;;;;7.62;4.47;;;;;;;;;;4271132;33;20219;-59
2021/04/27 13:41:01;;;;;;;9.85;4.47;;;;;;;;;;4278730;33;20298;-59
2021/04/27 13:43:30;;;;;;;9.90;4.87;;;;;;;;;;4277712;33;20217;-59
2021/04/27 13:45:59;;;;;;;9.90;4.00;;;;;;;;;;4279241;33;20268;-59
2021/04/27 13:48:26;;;;;;;10.65;4.43;;;;;;;;;;4274297;33;20681;-60
2021/04/27 13:50:59;;;;;;;10.30;4.10;;;;;;;;;;4275308;33;20244;-60
2021/04/27 13:53:27;;;;;;;21.17;12.52;;;;;;;;;;4287553;33;20638;-60
2021/04/27 13:55:54;;;;;;;9.98;5.03;;;;;;;;;;4284028;33;20366;-59
2021/04/27 13:58:20;;;;;;;11.07;5.10;;;;;;;;;;4271480;33;20291;-60
2021/04/27 14:00:47;;;;;;;7.25;5.28;;;;;;;;;;4274631;33;20539;-60
2021/04/27 14:03:12;;;;;;;9.63;4.72;;;;;;;;;;4276078;33;20794;-56
2021/04/27 14:05:39;;;;;;;8.75;4.80;;;;;;;;;;4267334;33;20331;-57
2021/04/27 14:08:08;;;;;;;12.35;5.57;;;;;;;;;;4274987;33;20271;-59
2021/04/27 14:10:34;;;;;;;16.85;8.18;;;;;;;;;;4260001;33;20369;-58
2021/04/27 14:13:00;;;;;;;11.77;5.10;;;;;;;;;;4275569;33;20275;-58
2021/04/27 14:15:29;;;;;;;16.62;7.97;;;;;;;;;;4274439;33;20429;-58
2021/04/27 14:17:56;;;;;;;24.23;14.25;;;;;;;;;;4270326;33;20571;-59
2021/04/27 14:20:24;;;;;;;9.13;5.47;;;;;;;;;;4261197;33;20805;-59
2021/04/27 14:22:50;;;;;;;8.57;5.10;;;;;;;;;;4272509;33;20377;-59
2021/04/27 14:25:17;;;;;;;12.35;7.57;;;;;;;;;;4264445;33;20769;-59
2021/04/27 14:27:43;;;;;;;18.33;11.80;;;;;;;;;;4275254;33;20355;-60
2021/04/27 14:30:12;;;;;;;11.75;6.78;;;;;;;;;;4269336;33;20283;-58
2021/04/27 14:32:40;;;;;;;13.80;7.45;;;;;;;;;;4275643;33;20208;-59
2021/04/27 14:35:06;;;;;;;20.23;8.00;;;;;;;;;;4274846;33;20264;-59
2021/04/27 14:37:32;;;;;;;16.77;8.60;;;;;;;;;;4276826;33;20462;-57